BRX146 ESSA-ESMS
Flight info
| Callsign | BRX146 |
|---|---|
| Flight time | 1h 2m |
| Altitude | 30000 |
| Route | NOSLI N850 ABAMA DCT NEMBA N33 ETPIG P605 EKRAL |
| Aircraft | RJ1H/M-SDFGIRWY/LB1 |
Departure
| Time | 2026-04-26 18:35 |
|---|---|
| Airport | Stockholm-Arlanda Airport (ESSA) |
Arrival
| Time | 2026-04-26 19:37 |
|---|---|
| Airport | Malmö Sturup Airport (ESMS) |
| Time | Latitude | Longitude | Altitude | Speed | Heading |
|---|---|---|---|---|---|
| 2026-04-26 17:15 | 59.64600 | 17.92521 | 110 ft | 0 kts | 241° |
| 2026-04-26 18:27 | 59.64600 | 17.92515 | 111 ft | 1 kts | 271° |
| 2026-04-26 18:27 | 59.64613 | 17.92499 | 111 ft | 4 kts | 338° |
| 2026-04-26 18:28 | 59.64650 | 17.92448 | 111 ft | 9 kts | 304° |
| 2026-04-26 18:28 | 59.64674 | 17.92313 | 111 ft | 12 kts | 286° |
| 2026-04-26 18:28 | 59.64698 | 17.92147 | 109 ft | 14 kts | 284° |
| 2026-04-26 18:28 | 59.64642 | 17.92013 | 108 ft | 15 kts | 188° |
| 2026-04-26 18:29 | 59.64536 | 17.91975 | 110 ft | 16 kts | 191° |
| 2026-04-26 18:29 | 59.64428 | 17.91938 | 109 ft | 16 kts | 189° |
| 2026-04-26 18:29 | 59.64321 | 17.91901 | 110 ft | 16 kts | 191° |
| 2026-04-26 18:29 | 59.64214 | 17.91861 | 114 ft | 16 kts | 191° |
| 2026-04-26 18:30 | 59.64105 | 17.91819 | 114 ft | 16 kts | 190° |
| 2026-04-26 18:30 | 59.64001 | 17.91782 | 112 ft | 15 kts | 190° |
| 2026-04-26 18:30 | 59.63897 | 17.91745 | 109 ft | 15 kts | 192° |
| 2026-04-26 18:30 | 59.63804 | 17.91646 | 107 ft | 15 kts | 221° |
| 2026-04-26 18:31 | 59.63775 | 17.91596 | 106 ft | 0 kts | 221° |
| 2026-04-26 18:32 | 59.63765 | 17.91580 | 106 ft | 5 kts | 221° |
| 2026-04-26 18:32 | 59.63729 | 17.91482 | 107 ft | 12 kts | 257° |
| 2026-04-26 18:32 | 59.63778 | 17.91351 | 110 ft | 15 kts | 351° |
| 2026-04-26 18:33 | 59.63810 | 17.91354 | 109 ft | 0 kts | 8° |
| 2026-04-26 18:34 | 59.63852 | 17.91368 | 109 ft | 30 kts | 9° |
| 2026-04-26 18:34 | 59.64302 | 17.91531 | 107 ft | 99 kts | 10° |
| 2026-04-26 18:35 | 59.65152 | 17.91822 | 151 ft | 143 kts | 10° |
| 2026-04-26 18:35 | 59.66136 | 17.92306 | 691 ft | 147 kts | 10° |
| 2026-04-26 18:35 | 59.67131 | 17.92828 | 1426 ft | 147 kts | 9° |
| 2026-04-26 18:35 | 59.68108 | 17.93148 | 2164 ft | 142 kts | 0° |
| 2026-04-26 18:36 | 59.69075 | 17.93192 | 2935 ft | 135 kts | 2° |
| 2026-04-26 18:36 | 59.69982 | 17.92841 | 3508 ft | 142 kts | 319° |
| 2026-04-26 18:36 | 59.70416 | 17.90929 | 3787 ft | 171 kts | 289° |
| 2026-04-26 18:36 | 59.70717 | 17.88533 | 4192 ft | 185 kts | 286° |
| 2026-04-26 18:37 | 59.70594 | 17.85958 | 4788 ft | 193 kts | 260° |
| 2026-04-26 18:37 | 59.70236 | 17.83327 | 4965 ft | 197 kts | 261° |
| 2026-04-26 18:37 | 59.69881 | 17.80788 | 4981 ft | 189 kts | 261° |
| 2026-04-26 18:37 | 59.69428 | 17.78307 | 5000 ft | 196 kts | 248° |
| 2026-04-26 18:38 | 59.68740 | 17.75957 | 4995 ft | 199 kts | 245° |
| 2026-04-26 18:38 | 59.67985 | 17.73515 | 5257 ft | 216 kts | 244° |
| 2026-04-26 18:38 | 59.67150 | 17.70816 | 5441 ft | 243 kts | 244° |
| 2026-04-26 18:38 | 59.66232 | 17.67835 | 6051 ft | 263 kts | 243° |
| 2026-04-26 18:39 | 59.65076 | 17.64905 | 6895 ft | 279 kts | 221° |
| 2026-04-26 18:39 | 59.63290 | 17.63249 | 7856 ft | 289 kts | 202° |
| 2026-04-26 18:39 | 59.61381 | 17.61923 | 8811 ft | 293 kts | 204° |
| 2026-04-26 18:39 | 59.59446 | 17.60584 | 9767 ft | 297 kts | 202° |
| 2026-04-26 18:40 | 59.57453 | 17.59353 | 10569 ft | 304 kts | 201° |
| 2026-04-26 18:40 | 59.55399 | 17.58154 | 11243 ft | 311 kts | 201° |
| 2026-04-26 18:40 | 59.53295 | 17.56919 | 11646 ft | 321 kts | 201° |
| 2026-04-26 18:40 | 59.51106 | 17.55665 | 11727 ft | 335 kts | 201° |
| 2026-04-26 18:41 | 59.48856 | 17.54220 | 11731 ft | 345 kts | 203° |
| 2026-04-26 18:41 | 59.46580 | 17.52665 | 11849 ft | 348 kts | 204° |
| 2026-04-26 18:41 | 59.44284 | 17.51076 | 12046 ft | 350 kts | 204° |
| 2026-04-26 18:41 | 59.41987 | 17.49470 | 12226 ft | 352 kts | 204° |
| 2026-04-26 18:42 | 59.39663 | 17.47850 | 12703 ft | 356 kts | 204° |
| 2026-04-26 18:42 | 59.37315 | 17.46222 | 13147 ft | 362 kts | 204° |
| 2026-04-26 18:42 | 59.34919 | 17.44583 | 13585 ft | 367 kts | 204° |
| 2026-04-26 18:42 | 59.32491 | 17.42936 | 13994 ft | 372 kts | 204° |
| 2026-04-26 18:43 | 59.30033 | 17.41274 | 14347 ft | 375 kts | 204° |
| 2026-04-26 18:43 | 59.27561 | 17.39615 | 14663 ft | 377 kts | 204° |
| 2026-04-26 18:43 | 59.25065 | 17.37981 | 15016 ft | 379 kts | 204° |
| 2026-04-26 18:43 | 59.22568 | 17.36298 | 15401 ft | 380 kts | 205° |
| 2026-04-26 18:44 | 59.20064 | 17.34599 | 15764 ft | 382 kts | 205° |
| 2026-04-26 18:44 | 59.17537 | 17.32888 | 16128 ft | 385 kts | 205° |
| 2026-04-26 18:44 | 59.14999 | 17.31173 | 16481 ft | 388 kts | 205° |
| 2026-04-26 18:44 | 59.12452 | 17.29464 | 16846 ft | 390 kts | 205° |
| 2026-04-26 18:45 | 59.09896 | 17.27647 | 17196 ft | 390 kts | 209° |
| 2026-04-26 18:45 | 59.07457 | 17.25409 | 17542 ft | 386 kts | 217° |
| 2026-04-26 18:45 | 59.05197 | 17.22634 | 17896 ft | 383 kts | 223° |
| 2026-04-26 18:45 | 59.03069 | 17.19521 | 18254 ft | 382 kts | 227° |
| 2026-04-26 18:46 | 59.01047 | 17.16295 | 18556 ft | 382 kts | 229° |
| 2026-04-26 18:46 | 58.99002 | 17.12901 | 18899 ft | 382 kts | 229° |
| 2026-04-26 18:46 | 58.96980 | 17.09540 | 19220 ft | 384 kts | 229° |
| 2026-04-26 18:46 | 58.94965 | 17.06219 | 19546 ft | 386 kts | 229° |
| 2026-04-26 18:47 | 58.92912 | 17.02855 | 19866 ft | 388 kts | 228° |
| 2026-04-26 18:47 | 58.90826 | 16.99514 | 20183 ft | 390 kts | 228° |
| 2026-04-26 18:47 | 58.88727 | 16.96174 | 20501 ft | 392 kts | 228° |
| 2026-04-26 18:47 | 58.86615 | 16.92835 | 20805 ft | 393 kts | 228° |
| 2026-04-26 18:48 | 58.84464 | 16.89430 | 21109 ft | 395 kts | 228° |
| 2026-04-26 18:48 | 58.82354 | 16.86037 | 21412 ft | 396 kts | 229° |
| 2026-04-26 18:48 | 58.80255 | 16.82680 | 21694 ft | 398 kts | 228° |
| 2026-04-26 18:48 | 58.78110 | 16.79305 | 21964 ft | 399 kts | 228° |
| 2026-04-26 18:49 | 58.75960 | 16.75907 | 22308 ft | 399 kts | 229° |
| 2026-04-26 18:49 | 58.73823 | 16.72495 | 22588 ft | 400 kts | 229° |
| 2026-04-26 18:49 | 58.71672 | 16.69067 | 22852 ft | 402 kts | 228° |
| 2026-04-26 18:49 | 58.69496 | 16.65666 | 23110 ft | 404 kts | 228° |
| 2026-04-26 18:50 | 58.67312 | 16.62248 | 23373 ft | 405 kts | 229° |
| 2026-04-26 18:50 | 58.65143 | 16.58811 | 23622 ft | 406 kts | 229° |
| 2026-04-26 18:50 | 58.62951 | 16.55370 | 23849 ft | 408 kts | 228° |
| 2026-04-26 18:50 | 58.60735 | 16.51944 | 24049 ft | 409 kts | 228° |
| 2026-04-26 18:51 | 58.58530 | 16.48488 | 24206 ft | 410 kts | 229° |
| 2026-04-26 18:51 | 58.56324 | 16.45022 | 24444 ft | 410 kts | 228° |
| 2026-04-26 18:51 | 58.54093 | 16.41575 | 24612 ft | 412 kts | 228° |
| 2026-04-26 18:51 | 58.51863 | 16.38115 | 24753 ft | 414 kts | 228° |
| 2026-04-26 18:52 | 58.49641 | 16.34634 | 24974 ft | 414 kts | 228° |
| 2026-04-26 18:52 | 58.47403 | 16.31184 | 25201 ft | 415 kts | 227° |
| 2026-04-26 18:52 | 58.45144 | 16.27732 | 25435 ft | 414 kts | 228° |
| 2026-04-26 18:52 | 58.42914 | 16.24277 | 25682 ft | 413 kts | 228° |
| 2026-04-26 18:53 | 58.40681 | 16.20802 | 25889 ft | 413 kts | 228° |
| 2026-04-26 18:53 | 58.38443 | 16.17367 | 26119 ft | 413 kts | 227° |
| 2026-04-26 18:53 | 58.36198 | 16.13956 | 26342 ft | 413 kts | 228° |
| 2026-04-26 18:53 | 58.33964 | 16.10515 | 26570 ft | 412 kts | 228° |
| 2026-04-26 18:54 | 58.31740 | 16.07085 | 26794 ft | 412 kts | 228° |
| 2026-04-26 18:54 | 58.29499 | 16.03689 | 27003 ft | 412 kts | 227° |
| 2026-04-26 18:54 | 58.27260 | 16.00299 | 27249 ft | 411 kts | 227° |
| 2026-04-26 18:54 | 58.25026 | 15.96928 | 27475 ft | 410 kts | 227° |
| 2026-04-26 18:55 | 58.22801 | 15.93543 | 27679 ft | 409 kts | 228° |
| 2026-04-26 18:55 | 58.20590 | 15.90143 | 27894 ft | 409 kts | 227° |
| 2026-04-26 18:55 | 58.18366 | 15.86773 | 28102 ft | 409 kts | 227° |
| 2026-04-26 18:55 | 58.16140 | 15.83416 | 28307 ft | 409 kts | 227° |
| 2026-04-26 18:56 | 58.13912 | 15.80069 | 28517 ft | 408 kts | 227° |
| 2026-04-26 18:56 | 58.11691 | 15.76736 | 28721 ft | 408 kts | 227° |
| 2026-04-26 18:56 | 58.09467 | 15.73405 | 28920 ft | 408 kts | 227° |
| 2026-04-26 18:56 | 58.07271 | 15.70112 | 29111 ft | 407 kts | 227° |
| 2026-04-26 18:57 | 58.05042 | 15.66728 | 29323 ft | 405 kts | 227° |
| 2026-04-26 18:57 | 58.04326 | 15.65646 | 29427 ft | 404 kts | 227° |
| 2026-04-26 18:57 | 58.00686 | 15.60165 | 29785 ft | 403 kts | 227° |
| 2026-04-26 18:57 | 57.98495 | 15.56878 | 29967 ft | 402 kts | 227° |
| 2026-04-26 18:58 | 57.96308 | 15.53594 | 30143 ft | 401 kts | 227° |
| 2026-04-26 18:58 | 57.94125 | 15.50325 | 30172 ft | 398 kts | 227° |
| 2026-04-26 18:58 | 57.89809 | 15.43886 | 30192 ft | 396 kts | 227° |
| 2026-04-26 18:59 | 57.85470 | 15.37511 | 30172 ft | 397 kts | 226° |
| 2026-04-26 18:59 | 57.81119 | 15.31127 | 30196 ft | 396 kts | 226° |
| 2026-04-26 19:00 | 57.76784 | 15.24786 | 30216 ft | 396 kts | 226° |
| 2026-04-26 19:00 | 57.71894 | 15.19599 | 30216 ft | 411 kts | 211° |
| 2026-04-26 19:01 | 57.67485 | 15.16221 | 30220 ft | 414 kts | 209° |
| 2026-04-26 19:01 | 57.62146 | 15.12179 | 30210 ft | 413 kts | 210° |
| 2026-04-26 19:02 | 57.56843 | 15.08023 | 30182 ft | 412 kts | 210° |
| 2026-04-26 19:02 | 57.52466 | 15.04570 | 30216 ft | 411 kts | 210° |
| 2026-04-26 19:03 | 57.46323 | 14.99643 | 30220 ft | 412 kts | 210° |
| 2026-04-26 19:03 | 57.41046 | 14.95487 | 30219 ft | 412 kts | 210° |
| 2026-04-26 19:04 | 57.35765 | 14.91339 | 30227 ft | 412 kts | 210° |
| 2026-04-26 19:04 | 57.30475 | 14.87263 | 30198 ft | 411 kts | 210° |
| 2026-04-26 19:05 | 57.22655 | 14.81093 | 30226 ft | 407 kts | 210° |
| 2026-04-26 19:06 | 57.17448 | 14.76990 | 30225 ft | 407 kts | 210° |
| 2026-04-26 19:06 | 57.14867 | 14.75013 | 30066 ft | 405 kts | 210° |
| 2026-04-26 19:06 | 57.12249 | 14.73009 | 29198 ft | 409 kts | 210° |
| 2026-04-26 19:06 | 57.09620 | 14.70969 | 28426 ft | 410 kts | 210° |
| 2026-04-26 19:07 | 57.06988 | 14.68932 | 27663 ft | 412 kts | 210° |
| 2026-04-26 19:07 | 57.04344 | 14.66877 | 26892 ft | 413 kts | 210° |
| 2026-04-26 19:07 | 57.01691 | 14.64809 | 26129 ft | 415 kts | 210° |
| 2026-04-26 19:07 | 56.99019 | 14.62767 | 25359 ft | 418 kts | 209° |
| 2026-04-26 19:08 | 56.96327 | 14.60728 | 24605 ft | 419 kts | 209° |
| 2026-04-26 19:08 | 56.93616 | 14.58676 | 23832 ft | 421 kts | 209° |
| 2026-04-26 19:08 | 56.90908 | 14.56626 | 23038 ft | 421 kts | 208° |
| 2026-04-26 19:08 | 56.88215 | 14.54589 | 22400 ft | 416 kts | 208° |
| 2026-04-26 19:09 | 56.85560 | 14.52557 | 21777 ft | 411 kts | 209° |
| 2026-04-26 19:09 | 56.82937 | 14.50527 | 21148 ft | 408 kts | 209° |
| 2026-04-26 19:09 | 56.80333 | 14.48553 | 20512 ft | 404 kts | 208° |
| 2026-04-26 19:09 | 56.77763 | 14.46595 | 19982 ft | 398 kts | 208° |
| 2026-04-26 19:10 | 56.75219 | 14.44656 | 19352 ft | 395 kts | 208° |
| 2026-04-26 19:10 | 56.72693 | 14.42731 | 18756 ft | 391 kts | 208° |
| 2026-04-26 19:10 | 56.70193 | 14.40812 | 18114 ft | 388 kts | 208° |
| 2026-04-26 19:10 | 56.67717 | 14.38919 | 17463 ft | 384 kts | 208° |
| 2026-04-26 19:11 | 56.65253 | 14.37084 | 16836 ft | 381 kts | 207° |
| 2026-04-26 19:11 | 56.62807 | 14.35280 | 16213 ft | 377 kts | 208° |
| 2026-04-26 19:11 | 56.60400 | 14.33466 | 15593 ft | 374 kts | 208° |
| 2026-04-26 19:11 | 56.58010 | 14.31655 | 14994 ft | 370 kts | 208° |
| 2026-04-26 19:12 | 56.55636 | 14.29897 | 14383 ft | 367 kts | 207° |
| 2026-04-26 19:12 | 56.53282 | 14.28154 | 13795 ft | 363 kts | 207° |
| 2026-04-26 19:12 | 56.50956 | 14.26423 | 13179 ft | 359 kts | 207° |
| 2026-04-26 19:12 | 56.48658 | 14.24707 | 12579 ft | 355 kts | 207° |
| 2026-04-26 19:13 | 56.46389 | 14.22998 | 11990 ft | 351 kts | 207° |
| 2026-04-26 19:13 | 56.44161 | 14.21317 | 11664 ft | 340 kts | 207° |
| 2026-04-26 19:13 | 56.42039 | 14.19720 | 11383 ft | 321 kts | 207° |
| 2026-04-26 19:13 | 56.40024 | 14.18222 | 11014 ft | 306 kts | 207° |
| 2026-04-26 19:14 | 56.38076 | 14.16761 | 10759 ft | 301 kts | 208° |
| 2026-04-26 19:14 | 56.36156 | 14.15289 | 10467 ft | 301 kts | 207° |
| 2026-04-26 19:14 | 56.34201 | 14.13864 | 10325 ft | 303 kts | 206° |
| 2026-04-26 19:14 | 56.32904 | 14.12939 | 10297 ft | 301 kts | 206° |
| 2026-04-26 19:15 | 56.30316 | 14.11046 | 10247 ft | 299 kts | 207° |
| 2026-04-26 19:15 | 56.28391 | 14.09609 | 10253 ft | 300 kts | 208° |
| 2026-04-26 19:15 | 56.26464 | 14.08159 | 10261 ft | 300 kts | 207° |
| 2026-04-26 19:15 | 56.24557 | 14.06748 | 10262 ft | 300 kts | 207° |
| 2026-04-26 19:16 | 56.22606 | 14.05311 | 10256 ft | 300 kts | 207° |
| 2026-04-26 19:16 | 56.20669 | 14.03913 | 10259 ft | 300 kts | 207° |
| 2026-04-26 19:16 | 56.18766 | 14.02502 | 10261 ft | 300 kts | 208° |
| 2026-04-26 19:16 | 56.16818 | 14.01044 | 10262 ft | 300 kts | 207° |
| 2026-04-26 19:17 | 56.14880 | 13.99657 | 10268 ft | 300 kts | 206° |
| 2026-04-26 19:17 | 56.12973 | 13.98264 | 10270 ft | 299 kts | 208° |
| 2026-04-26 19:17 | 56.11043 | 13.96832 | 10267 ft | 300 kts | 207° |
| 2026-04-26 19:17 | 56.09107 | 13.95445 | 10270 ft | 300 kts | 207° |
| 2026-04-26 19:18 | 56.07174 | 13.94036 | 10269 ft | 299 kts | 207° |
| 2026-04-26 19:18 | 56.05249 | 13.92606 | 10260 ft | 300 kts | 207° |
| 2026-04-26 19:18 | 56.03314 | 13.91222 | 10258 ft | 300 kts | 206° |
| 2026-04-26 19:18 | 56.01370 | 13.89867 | 10263 ft | 300 kts | 207° |
| 2026-04-26 19:19 | 55.99436 | 13.88471 | 10266 ft | 300 kts | 207° |
| 2026-04-26 19:19 | 55.97510 | 13.87065 | 10266 ft | 299 kts | 207° |
| 2026-04-26 19:19 | 55.95589 | 13.85639 | 10268 ft | 299 kts | 207° |
| 2026-04-26 19:19 | 55.93658 | 13.84235 | 10271 ft | 300 kts | 207° |
| 2026-04-26 19:20 | 55.91734 | 13.82832 | 10273 ft | 299 kts | 207° |
| 2026-04-26 19:20 | 55.90458 | 13.81901 | 10271 ft | 299 kts | 207° |
| 2026-04-26 19:20 | 55.87876 | 13.80043 | 10268 ft | 299 kts | 206° |
| 2026-04-26 19:20 | 55.85938 | 13.78672 | 10273 ft | 299 kts | 207° |
| 2026-04-26 19:21 | 55.84015 | 13.77279 | 10019 ft | 298 kts | 207° |
| 2026-04-26 19:21 | 55.82107 | 13.75893 | 9627 ft | 296 kts | 207° |
| 2026-04-26 19:21 | 55.80201 | 13.74531 | 9235 ft | 293 kts | 206° |
| 2026-04-26 19:21 | 55.78315 | 13.73201 | 8854 ft | 291 kts | 206° |
| 2026-04-26 19:22 | 55.76449 | 13.71864 | 8466 ft | 288 kts | 207° |
| 2026-04-26 19:22 | 55.74600 | 13.70514 | 8100 ft | 286 kts | 206° |
| 2026-04-26 19:22 | 55.72760 | 13.69220 | 7732 ft | 284 kts | 206° |
| 2026-04-26 19:22 | 55.70929 | 13.67863 | 7382 ft | 286 kts | 209° |
| 2026-04-26 19:23 | 55.69096 | 13.66479 | 7029 ft | 288 kts | 205° |
| 2026-04-26 19:23 | 55.67211 | 13.65260 | 6657 ft | 287 kts | 205° |
| 2026-04-26 19:23 | 55.65351 | 13.64006 | 6264 ft | 285 kts | 206° |
| 2026-04-26 19:23 | 55.63523 | 13.62709 | 5874 ft | 282 kts | 207° |
| 2026-04-26 19:24 | 55.61738 | 13.61409 | 5470 ft | 280 kts | 207° |
| 2026-04-26 19:24 | 55.59999 | 13.60153 | 5057 ft | 261 kts | 207° |
| 2026-04-26 19:24 | 55.56761 | 13.57825 | 4172 ft | 251 kts | 207° |
| 2026-04-26 19:25 | 55.55062 | 13.57033 | 3747 ft | 256 kts | 190° |
| 2026-04-26 19:25 | 55.53860 | 13.56874 | 3465 ft | 258 kts | 186° |
| 2026-04-26 19:25 | 55.51467 | 13.56768 | 2926 ft | 257 kts | 182° |
| 2026-04-26 19:25 | 55.49763 | 13.56815 | 2637 ft | 232 kts | 181° |
| 2026-04-26 19:26 | 55.48199 | 13.56899 | 2521 ft | 221 kts | 180° |
| 2026-04-26 19:26 | 55.46710 | 13.57001 | 2563 ft | 208 kts | 180° |
| 2026-04-26 19:26 | 55.45282 | 13.57114 | 2588 ft | 205 kts | 180° |
| 2026-04-26 19:26 | 55.43842 | 13.57228 | 2585 ft | 208 kts | 180° |
| 2026-04-26 19:27 | 55.42397 | 13.57346 | 2572 ft | 208 kts | 180° |
| 2026-04-26 19:27 | 55.40958 | 13.57458 | 2551 ft | 206 kts | 181° |
| 2026-04-26 19:27 | 55.39522 | 13.57542 | 2529 ft | 207 kts | 181° |
| 2026-04-26 19:27 | 55.38110 | 13.57629 | 2510 ft | 195 kts | 181° |
| 2026-04-26 19:28 | 55.36790 | 13.57715 | 2516 ft | 188 kts | 181° |
| 2026-04-26 19:28 | 55.35484 | 13.57784 | 2515 ft | 187 kts | 183° |
| 2026-04-26 19:28 | 55.34323 | 13.57054 | 2492 ft | 170 kts | 228° |
| 2026-04-26 19:28 | 55.33656 | 13.55558 | 2485 ft | 142 kts | 239° |
| 2026-04-26 19:29 | 55.33172 | 13.54224 | 2469 ft | 121 kts | 243° |
| 2026-04-26 19:29 | 55.32755 | 13.52943 | 2473 ft | 122 kts | 246° |
| 2026-04-26 19:29 | 55.32358 | 13.51627 | 2488 ft | 122 kts | 247° |
| 2026-04-26 19:29 | 55.31976 | 13.50297 | 2503 ft | 123 kts | 247° |
| 2026-04-26 19:30 | 55.31600 | 13.48948 | 2513 ft | 122 kts | 248° |
| 2026-04-26 19:30 | 55.31469 | 13.47557 | 2476 ft | 117 kts | 298° |
| 2026-04-26 19:30 | 55.32003 | 13.46473 | 2527 ft | 119 kts | 314° |
| 2026-04-26 19:30 | 55.32403 | 13.45817 | 2535 ft | 119 kts | 316° |
| 2026-04-26 19:31 | 55.33256 | 13.44561 | 2535 ft | 120 kts | 319° |
| 2026-04-26 19:31 | 55.33900 | 13.43684 | 2519 ft | 115 kts | 320° |
| 2026-04-26 19:31 | 55.34543 | 13.42836 | 2516 ft | 116 kts | 321° |
| 2026-04-26 19:31 | 55.35223 | 13.42068 | 2513 ft | 117 kts | 334° |
| 2026-04-26 19:32 | 55.35998 | 13.41611 | 2516 ft | 119 kts | 341° |
| 2026-04-26 19:32 | 55.36802 | 13.41276 | 2515 ft | 119 kts | 345° |
| 2026-04-26 19:32 | 55.37612 | 13.41003 | 2516 ft | 119 kts | 346° |
| 2026-04-26 19:32 | 55.38436 | 13.40777 | 2521 ft | 120 kts | 347° |
| 2026-04-26 19:33 | 55.39266 | 13.40580 | 2521 ft | 121 kts | 349° |
| 2026-04-26 19:33 | 55.40108 | 13.40392 | 2522 ft | 126 kts | 349° |
| 2026-04-26 19:33 | 55.40984 | 13.40213 | 2517 ft | 124 kts | 348° |
| 2026-04-26 19:33 | 55.41844 | 13.40038 | 2411 ft | 130 kts | 349° |
| 2026-04-26 19:34 | 55.42745 | 13.39851 | 2220 ft | 130 kts | 349° |
| 2026-04-26 19:34 | 55.43642 | 13.39666 | 2031 ft | 129 kts | 350° |
| 2026-04-26 19:34 | 55.44525 | 13.39490 | 1851 ft | 127 kts | 349° |
| 2026-04-26 19:34 | 55.45406 | 13.39311 | 1685 ft | 128 kts | 350° |
| 2026-04-26 19:35 | 55.46295 | 13.39128 | 1497 ft | 129 kts | 350° |
| 2026-04-26 19:35 | 55.47193 | 13.38937 | 1324 ft | 130 kts | 349° |
| 2026-04-26 19:35 | 55.48097 | 13.38754 | 1147 ft | 131 kts | 349° |
| 2026-04-26 19:35 | 55.49002 | 13.38572 | 972 ft | 130 kts | 349° |
| 2026-04-26 19:36 | 55.49901 | 13.38377 | 807 ft | 131 kts | 349° |
| 2026-04-26 19:36 | 55.50505 | 13.38249 | 666 ft | 134 kts | 350° |
| 2026-04-26 19:36 | 55.51764 | 13.37992 | 378 ft | 135 kts | 351° |
| 2026-04-26 19:36 | 55.52678 | 13.37815 | 257 ft | 124 kts | 351° |
| 2026-04-26 19:37 | 55.53473 | 13.37649 | 238 ft | 105 kts | 353° |
| 2026-04-26 19:37 | 55.54111 | 13.37524 | 241 ft | 78 kts | 353° |
| 2026-04-26 19:37 | 55.54491 | 13.37446 | 234 ft | 47 kts | 354° |
| 2026-04-26 19:37 | 55.54757 | 13.37384 | 239 ft | 21 kts | 333° |
| 2026-04-26 19:38 | 55.54733 | 13.37214 | 235 ft | 18 kts | 202° |
| 2026-04-26 19:38 | 55.54620 | 13.37140 | 231 ft | 16 kts | 189° |
| 2026-04-26 19:38 | 55.54511 | 13.37144 | 231 ft | 15 kts | 176° |
| 2026-04-26 19:38 | 55.54415 | 13.37164 | 231 ft | 13 kts | 173° |
| 2026-04-26 19:39 | 55.54322 | 13.37184 | 231 ft | 14 kts | 173° |
| 2026-04-26 19:39 | 55.54231 | 13.37185 | 231 ft | 12 kts | 208° |
| 2026-04-26 19:39 | 55.54189 | 13.37083 | 231 ft | 6 kts | 243° |
| 2026-04-26 19:39 | 55.54179 | 13.37013 | 233 ft | 5 kts | 259° |
| 2026-04-26 19:40 | 55.54177 | 13.36998 | 231 ft | 0 kts | 259° |
| 2026-04-26 19:40 | 55.54176 | 13.36991 | 231 ft | 1 kts | 251° |
| 2026-04-26 19:40 | 55.54162 | 13.36973 | 231 ft | 5 kts | 189° |
| 2026-04-26 19:41 | 55.54122 | 13.36984 | 232 ft | 6 kts | 178° |
| 2026-04-26 19:41 | 55.54110 | 13.36969 | 231 ft | 1 kts | 264° |
| 2026-04-26 19:41 | 55.54113 | 13.36958 | 232 ft | 0 kts | 299° |